Villas de Parana, Puerto Rico
Current Conditions -  °F | °C
As of 9:56 PM on Tuesday 21 Oct 2014 (Local Time) from TJSJ Reporting Station
Scattered Clouds Scattered Clouds  
Wind Chill: 82°   Ceiling: Unl
Heat Index: 89°   Visibility: 10mi
Dew Point: 75°   Wind: 3mph
Humidity: 79%   Direction: 110°ESE
Pressure: 29.97"   Gusts: NA
Location:  18.3754°N, 66.0577°W
Report Text: TJSJ 220156Z 11003KT 10SM FEW039 SCT075 28/24 A2997 RMK AO2 SLP149 T02780239
Loading
Personal Weather Stations






























Interactive Weather Map
Tropical Storm Tracking
New forecast layout! Learn more

10-Day Weather Forecast

Advertisements
Track Severe Weather on mobile